TJSJTDPD

Guest
Details From TJSJ - San Juan - Luis Munoz Marin Intl
To TDPD - Dominica/Melville Hall
Flight Number -
Tags generated
Created
Modified
Stats Distance 326 nm / 604 km
Max Altitude 29,500 ft / 8,992 m
Waypoints 5
Social Downloads 2
Likes 0
Share VATSIM

Download

Looking for another format? Having issues loading an existing format? Contact us
Advertisement - Login to hide

Notes

Basic altitude profile: - Ascent Rate: 2500ft/min - Ascent Speed: 250kts - Cruise Altitude: 35000ft - Cruise Speed: 420kts - Descent Rate: 1500ft/min - Descent Speed: 250kts Options: - Use NATs: yes - Use PACOTS: yes - Use low airways: yes - Use high airways: yes

Route

TJSJ COY R888 GORET TDPD

ID Type Via Altitude Latitude Longitude Leg Dist Tot Dist Heading (true) Name
O TJSJ APT - 0 ft / 0 m 18.43878˚ -66.00202˚ - 0 nm - San Juan - Luis Munoz Marin Intl
COY VOR - 29,500 ft / 8,992 m 17.73444˚ -64.70072˚ 85 nm 85 nm 119° / 120° ST CROIX VOR-DME
MODUX FIX R888 (AWY-HI) 27,300 ft / 8,321 m 16.95889˚ -63.00000˚ 108 nm 193 nm 115° / 116° -
GORET FIX R888 (AWY-LO) 15,900 ft / 4,846 m 16.56472˚ -62.17194˚ 53 nm 246 nm 116° / 117° -
O TDPD APT - 0 ft / 0 m 15.54680˚ -61.30063˚ 79 nm 325 nm 140° / 141° Dominica/Melville Hall

Altitude Profile

Advertisement - Login to hide

Weather


0- 5 10 15 20 25 30 35+ Temperature / ° C

Clouds and Precipitation
Forecast for 2018-05-22 18:00 UTC. Updated 2 hours ago

Ground ~20,000 ft ~40,000 ft Winds

TJSJ

Details ICAO TJSJ (SJU)
Name San Juan - Luis Munoz Marin Intl
Region USA (Puerto Rico)
Timezone America/Puerto_Rico (UTC-4.0)
Stats Elevation 9 ft / 3 m (AMSL)
Location 18.438777° -66.002018°
Runways 2
Magnetic Variation 13.242° W

METAR

TJSJ 221856Z 07014KT 10SM FEW031 SCT065 SCT100 28/23 A3001

Decode

TAF

TAF TJSJ 221744Z 2218/2318 08015G22KT P6SM VCSH SCT025 SCT040 SCT090 FM222300 09011KT P6SM FEW025 SCT070 FM231400 07016KT P6SM FEW025 SCT035

Decode

Departure Runways

ID Width Length Bearing (true) Bearing (mag) Surface Threshold Offset Overrun Length
08 200 ft / 61 m 9,781 ft / 2,981 m 66.87° 80.11° Asphalt 0 ft / 0 m 200 ft / 61 m
10 151 ft / 46 m 8,007 ft / 2,440 m 90.14° 103.38° Concrete 0 ft / 0 m 200 ft / 61 m
26 200 ft / 61 m 9,781 ft / 2,981 m 246.88° 260.12° Asphalt 0 ft / 0 m 230 ft / 70 m
28 151 ft / 46 m 8,007 ft / 2,440 m 270.15° 283.39° Concrete 0 ft / 0 m 200 ft / 61 m

TDPD

Details ICAO TDPD (DOM)
Name Dominica/Melville Hall
Region Dominica
Timezone America/Dominica (UTC-4.0)
Stats Elevation 73 ft / 22 m (AMSL)
Location 15.546804° -61.300626°
Runways 1
Magnetic Variation 14.954° W

METAR

TDPD 221900Z 11011KT 9999 SCT017 28/23 Q1016

Decode

TAF

Not found

Destination Runways

ID Width Length Bearing (true) Bearing (mag) Surface Threshold Offset Overrun Length
09 148 ft / 45 m 5,254 ft / 1,601 m 69.89° 84.84° Asphalt 650 ft / 198 m 0 ft / 0 m
27 148 ft / 45 m 5,254 ft / 1,601 m 249.89° 264.84° Asphalt 0 ft / 0 m 0 ft / 0 m

Popular Alternatives